Time;durP1;ratioP1;P1;durP2;ratioP2;P2;SDS_P1;SDS_P2;PMS_P1;PMS_P2;Temp;Humidity;BMP_temperature;BMP_pressure;BME280_temperature;BME280_humidity;BME280_pressure;Samples;Min_cycle;Max_cycle;Signal;HPM_P1;HPM_P2
2023/06/02 00:00:00;;;;;;;18.20;4.30;;;10.60;1.00;;;;;;5075009;28;20492;-69
2023/06/02 00:02:29;;;;;;;12.53;4.97;;;10.50;1.00;;;;;;5074466;28;20390;-70
2023/06/02 00:04:59;;;;;;;13.37;4.43;;;10.50;1.00;;;;;;5074980;28;20719;-72
2023/06/02 00:07:29;;;;;;;12.10;4.37;;;10.50;1.00;;;;;;5073712;28;20431;-71
2023/06/02 00:09:55;;;;;;;17.93;5.73;;;10.40;1.00;;;;;;5074837;28;20835;-72
2023/06/02 00:12:21;;;;;;;13.10;5.17;;;10.40;1.00;;;;;;5074281;28;20879;-69
2023/06/02 00:14:48;;;;;;;15.60;4.40;;;10.40;1.00;;;;;;5074891;28;20815;-71
2023/06/02 00:17:14;;;;;;;22.37;5.10;;;10.30;1.00;;;;;;5074793;28;20411;-69
2023/06/02 00:19:42;;;;;;;11.83;4.17;;;10.30;1.00;;;;;;5074734;28;20782;-70
2023/06/02 00:22:13;;;;;;;9.67;3.90;;;10.30;1.00;;;;;;5072991;28;20414;-69
2023/06/02 00:24:42;;;;;;;10.03;4.10;;;10.30;1.00;;;;;;5074706;28;20478;-70
2023/06/02 00:27:09;;;;;;;8.47;4.13;;;10.20;1.00;;;;;;5074262;28;20515;-69
2023/06/02 00:29:35;;;;;;;10.80;5.47;;;10.20;1.00;;;;;;5074607;28;20376;-70
2023/06/02 00:32:01;;;;;;;13.50;3.50;;;10.20;1.00;;;;;;5072694;28;20507;-70
2023/06/02 00:34:27;;;;;;;10.13;4.40;;;10.20;1.00;;;;;;5074412;28;20818;-71
2023/06/02 00:36:52;;;;;;;8.90;4.30;;;10.20;1.00;;;;;;5073295;28;20178;-69
2023/06/02 00:39:18;;;;;;;15.57;4.83;;;10.20;1.00;;;;;;5073361;28;20182;-69
2023/06/02 00:41:45;;;;;;;10.87;3.80;;;10.20;1.00;;;;;;5072148;28;20261;-70
2023/06/02 00:44:11;;;;;;;5.27;3.73;;;10.20;1.00;;;;;;5072988;28;20217;-70
2023/06/02 00:46:36;;;;;;;10.63;4.33;;;10.10;1.00;;;;;;5073951;28;20491;-70
2023/06/02 00:49:03;;;;;;;15.23;4.63;;;10.10;1.00;;;;;;5074043;28;20473;-71
2023/06/02 00:51:29;;;;;;;9.50;4.20;;;10.00;1.00;;;;;;5053617;28;20183;-71
2023/06/02 00:53:55;;;;;;;9.00;4.90;;;9.90;1.00;;;;;;5054192;28;20399;-70
2023/06/02 00:56:23;;;;;;;8.73;4.50;;;9.90;1.00;;;;;;5054064;28;20741;-69
2023/06/02 00:58:49;;;;;;;9.40;4.10;;;9.80;1.00;;;;;;5053887;28;20880;-70
2023/06/02 01:01:18;;;;;;;15.50;3.90;;;9.70;1.00;;;;;;5053130;28;20463;-68
2023/06/02 01:03:46;;;;;;;11.20;4.10;;;9.70;1.00;;;;;;5062658;28;20427;-69
2023/06/02 01:06:15;;;;;;;9.10;5.20;;;9.70;1.00;;;;;;5073774;28;20429;-69
2023/06/02 01:08:42;;;;;;;9.73;4.47;;;9.70;1.00;;;;;;5073864;28;20378;-71
2023/06/02 01:11:08;;;;;;;7.53;4.20;;;9.60;1.00;;;;;;5072899;28;20458;-70
2023/06/02 01:13:35;;;;;;;10.53;4.43;;;9.60;1.00;;;;;;5073556;28;20464;-70
2023/06/02 01:16:01;;;;;;;15.70;5.20;;;9.50;1.00;;;;;;5073665;28;20409;-70
2023/06/02 01:18:29;;;;;;;11.77;4.80;;;9.50;1.00;;;;;;5071607;28;20432;-70
2023/06/02 01:20:58;;;;;;;13.40;5.40;;;9.40;1.00;;;;;;5072831;28;20796;-69
2023/06/02 01:23:33;;;;;;;5.83;4.27;;;9.50;1.00;;;;;;5072180;28;20486;-69
2023/06/02 01:26:00;;;;;;;10.80;4.33;;;9.50;1.00;;;;;;5073442;28;20425;-70
2023/06/02 01:28:27;;;;;;;15.53;5.40;;;9.40;1.00;;;;;;5072473;28;20386;-70
2023/06/02 01:31:00;;;;;;;10.97;4.07;;;9.40;1.00;;;;;;5071496;28;20425;-70
2023/06/02 01:34:07;;;;;;;15.43;4.33;;;9.40;1.00;;;;;;5073292;28;20751;-70
2023/06/02 01:36:37;;;;;;;16.50;4.63;;;9.40;1.00;;;;;;5072055;28;20424;-69
2023/06/02 01:39:05;;;;;;;9.00;5.03;;;9.50;1.00;;;;;;5073305;28;20905;-69
2023/06/02 01:41:34;;;;;;;5.03;4.57;;;9.50;1.00;;;;;;5072127;28;20372;-69
2023/06/02 01:44:02;;;;;;;7.90;3.97;;;9.60;1.00;;;;;;5071810;28;20463;-70
2023/06/02 01:46:28;;;;;;;13.97;5.27;;;9.60;1.00;;;;;;5073180;28;20475;-68
2023/06/02 01:48:55;;;;;;;5.40;4.10;;;9.70;1.00;;;;;;5073181;28;20947;-71
2023/06/02 01:51:21;;;;;;;11.03;4.03;;;9.70;1.00;;;;;;5071033;28;20444;-71
2023/06/02 01:53:46;;;;;;;12.40;3.33;;;9.70;1.00;;;;;;5072991;28;20428;-69
2023/06/02 01:56:12;;;;;;;13.10;4.13;;;9.70;1.00;;;;;;5070900;28;20418;-69
2023/06/02 01:58:38;;;;;;;9.67;4.07;;;9.70;1.00;;;;;;5072798;28;20170;-69
2023/06/02 02:01:04;;;;;;;12.80;5.20;;;9.70;1.00;;;;;;5072184;28;20523;-71
2023/06/02 02:03:30;;;;;;;6.40;3.77;;;9.70;1.00;;;;;;5072947;28;20185;-70
2023/06/02 02:05:56;;;;;;;20.10;4.40;;;9.70;1.00;;;;;;5072135;28;20429;-71
2023/06/02 02:08:22;;;;;;;6.30;3.70;;;9.70;1.00;;;;;;5072938;28;20401;-71
2023/06/02 02:10:48;;;;;;;7.53;4.03;;;9.80;1.00;;;;;;5070775;28;20425;-69
2023/06/02 02:13:14;;;;;;;4.00;3.60;;;9.80;1.00;;;;;;5071923;28;20185;-68
2023/06/02 02:15:39;;;;;;;9.10;4.03;;;9.70;1.00;;;;;;5072721;28;20166;-71
2023/06/02 02:18:06;;;;;;;5.53;3.77;;;9.70;1.00;;;;;;5072754;28;20169;-71
2023/06/02 02:20:32;;;;;;;8.87;5.07;;;9.70;1.00;;;;;;5070781;28;20162;-70
2023/06/02 02:22:57;;;;;;;4.97;3.40;;;9.70;1.00;;;;;;5072689;28;20469;-69
2023/06/02 02:25:23;;;;;;;9.23;4.67;;;9.70;1.00;;;;;;5070860;28;20243;-71
2023/06/02 02:27:49;;;;;;;4.30;3.43;;;9.70;1.00;;;;;;5072794;28;20284;-69
2023/06/02 02:30:15;;;;;;;5.43;4.03;;;9.70;1.00;;;;;;5071784;28;20900;-69
2023/06/02 02:32:43;;;;;;;5.77;3.20;;;9.70;1.00;;;;;;5072727;28;20391;-69
2023/06/02 02:35:09;;;;;;;5.80;4.20;;;9.70;1.00;;;;;;5072518;28;20728;-71
2023/06/02 02:37:37;;;;;;;8.60;3.70;;;9.80;1.00;;;;;;5071802;28;20432;-69
2023/06/02 02:40:05;;;;;;;6.00;3.70;;;9.90;1.00;;;;;;5072270;28;20393;-77
2023/06/02 02:42:33;;;;;;;7.00;3.67;;;9.90;1.00;;;;;;5072528;28;20419;-71
2023/06/02 02:45:02;;;;;;;5.97;3.97;;;10.00;1.00;;;;;;5072532;28;20578;-71
2023/06/02 02:47:28;;;;;;;4.40;3.23;;;9.90;1.00;;;;;;5071504;28;20443;-72
2023/06/02 02:49:53;;;;;;;5.00;3.80;;;9.90;1.00;;;;;;5071319;28;20409;-74
2023/06/02 02:52:20;;;;;;;3.57;3.27;;;9.90;1.00;;;;;;5070399;28;20747;-71
2023/06/02 02:54:46;;;;;;;5.83;4.40;;;10.00;1.00;;;;;;5070171;28;20170;-70
2023/06/02 02:57:12;;;;;;;4.17;3.77;;;10.00;1.00;;;;;;5071547;28;20402;-68
2023/06/02 02:59:37;;;;;;;10.07;4.20;;;10.10;1.00;;;;;;5072474;28;20190;-71
2023/06/02 03:02:06;;;;;;;3.47;3.03;;;10.20;1.00;;;;;;5071647;28;20163;-69
2023/06/02 03:04:34;;;;;;;6.10;3.70;;;10.30;1.00;;;;;;5072351;28;20236;-71
2023/06/02 03:07:01;;;;;;;3.90;2.97;;;10.30;1.00;;;;;;5072348;28;20539;-69
2023/06/02 03:09:28;;;;;;;6.77;3.57;;;10.40;1.00;;;;;;5071494;28;20427;-71
2023/06/02 03:11:53;;;;;;;7.50;3.23;;;10.40;1.00;;;;;;5071229;28;20371;-69
2023/06/02 03:14:19;;;;;;;4.13;2.67;;;10.50;1.00;;;;;;5072289;28;20416;-71
2023/06/02 03:16:45;;;;;;;6.87;3.60;;;10.60;1.00;;;;;;5070650;28;20444;-72
2023/06/02 03:19:14;;;;;;;8.73;3.80;;;10.60;1.00;;;;;;5072391;28;20658;-69
2023/06/02 03:21:44;;;;;;;4.27;3.10;;;10.70;1.00;;;;;;5072612;28;20219;-69
2023/06/02 03:24:15;;;;;;;10.60;3.33;;;10.70;1.00;;;;;;5075816;28;20416;-69
2023/06/02 03:26:42;;;;;;;11.40;3.10;;;10.70;1.00;;;;;;5075702;28;20522;-71
2023/06/02 03:29:09;;;;;;;5.30;3.27;;;10.80;1.00;;;;;;5074515;28;20379;-68
2023/06/02 03:31:36;;;;;;;4.30;3.87;;;10.80;1.00;;;;;;5074002;28;20472;-71
2023/06/02 03:34:03;;;;;;;4.40;2.73;;;10.90;1.00;;;;;;5075743;28;20420;-70
2023/06/02 03:36:29;;;;;;;4.30;3.53;;;11.00;1.00;;;;;;5075593;28;20372;-72
2023/06/02 03:38:55;;;;;;;10.27;4.70;;;11.00;1.00;;;;;;5075531;28;20393;-71
2023/06/02 03:41:21;;;;;;;8.33;3.50;;;11.10;1.00;;;;;;5074663;28;20375;-70
2023/06/02 03:43:47;;;;;;;8.83;3.20;;;11.10;1.00;;;;;;5075344;28;20202;-69
2023/06/02 03:46:13;;;;;;;2.83;2.53;;;11.20;1.00;;;;;;5063866;28;20442;-70
2023/06/02 03:48:38;;;;;;;4.90;3.87;;;11.30;1.00;;;;;;5055301;28;20615;-68
2023/06/02 03:51:04;;;;;;;4.33;3.20;;;11.30;1.00;;;;;;5054438;28;20163;-69
2023/06/02 03:53:33;;;;;;;4.20;3.07;;;11.40;1.00;;;;;;5055168;28;20210;-69
2023/06/02 03:55:59;;;;;;;5.57;3.70;;;11.50;1.00;;;;;;5055363;28;20178;-72
2023/06/02 03:58:25;;;;;;;5.87;3.30;;;11.60;1.00;;;;;;5055185;28;20368;-71
2023/06/02 04:00:51;;;;;;;10.90;3.77;;;11.60;1.00;;;;;;5067172;28;20672;-72
2023/06/02 04:03:16;;;;;;;5.03;3.80;;;11.70;1.00;;;;;;5073695;28;20407;-72
2023/06/02 04:05:42;;;;;;;8.03;5.10;;;11.80;5.00;;;;;;5074818;28;20166;-72
2023/06/02 04:08:08;;;;;;;6.67;4.00;;;11.80;18.10;;;;;;5075065;28;20162;-70
2023/06/02 04:10:33;;;;;;;9.43;5.13;;;12.00;33.70;;;;;;5074190;28;20162;-67
2023/06/02 04:12:59;;;;;;;14.23;5.20;;;12.10;55.30;;;;;;5074750;28;20197;-71
2023/06/02 04:15:25;;;;;;;7.10;4.90;;;12.20;80.60;;;;;;5072958;28;20178;-71
2023/06/02 04:17:51;;;;;;;13.33;4.90;;;12.30;92.90;;;;;;5074938;28;20371;-67
2023/06/02 04:20:17;;;;;;;5.90;4.43;;;12.40;99.90;;;;;;5073729;28;20179;-66
2023/06/02 04:22:43;;;;;;;9.40;5.90;;;12.50;99.90;;;;;;5074378;28;20428;-72
2023/06/02 04:25:08;;;;;;;15.20;5.93;;;12.50;99.90;;;;;;5074599;28;20635;-71
2023/06/02 04:27:34;;;;;;;10.80;5.60;;;12.60;99.90;;;;;;5073674;28;20604;-68
2023/06/02 04:30:01;;;;;;;10.50;6.00;;;12.70;99.90;;;;;;5073540;28;20355;-67
2023/06/02 04:32:27;;;;;;;11.43;5.97;;;12.70;99.90;;;;;;5072168;28;20173;-67
2023/06/02 04:34:53;;;;;;;9.83;6.97;;;12.80;99.90;;;;;;5073264;28;20396;-69
2023/06/02 04:37:19;;;;;;;10.77;5.93;;;12.70;99.90;;;;;;5073186;28;20435;-70
2023/06/02 04:39:47;;;;;;;7.80;6.87;;;12.70;99.90;;;;;;5072854;28;20174;-67
2023/06/02 04:42:19;;;;;;;14.63;6.37;;;12.80;99.90;;;;;;5073609;28;20390;-70
2023/06/02 04:44:44;;;;;;;6.70;5.77;;;12.80;99.90;;;;;;5074118;28;20431;-68
2023/06/02 04:47:11;;;;;;;11.20;6.97;;;12.80;99.90;;;;;;5074099;28;20418;-71
2023/06/02 04:49:37;;;;;;;11.97;6.60;;;12.80;99.90;;;;;;5072863;28;20177;-68
2023/06/02 04:52:07;;;;;;;20.63;6.27;;;12.80;99.90;;;;;;5071169;28;20784;-70
2023/06/02 04:54:33;;;;;;;15.90;5.73;;;12.80;99.90;;;;;;5073012;28;20950;-70
2023/06/02 04:57:00;;;;;;;9.80;5.30;;;12.70;99.90;;;;;;5073082;28;20426;-71
2023/06/02 04:59:25;;;;;;;8.10;4.70;;;12.80;99.90;;;;;;5073560;28;20411;-68
2023/06/02 05:01:51;;;;;;;9.87;5.70;;;12.80;99.90;;;;;;5072337;28;20803;-67
2023/06/02 05:04:19;;;;;;;8.33;4.40;;;12.90;99.90;;;;;;5072524;28;20194;-70
2023/06/02 05:06:45;;;;;;;5.60;4.30;;;12.90;99.90;;;;;;5073845;28;20289;-71
2023/06/02 05:09:11;;;;;;;10.50;4.50;;;12.90;99.90;;;;;;5073861;28;20363;-68
2023/06/02 05:11:37;;;;;;;8.97;4.33;;;12.80;99.90;;;;;;5072763;28;20770;-68
2023/06/02 05:14:03;;;;;;;4.90;3.80;;;12.90;99.90;;;;;;5071681;28;20419;-68
2023/06/02 05:16:29;;;;;;;4.67;3.87;;;12.90;99.90;;;;;;5073768;28;20166;-67
2023/06/02 05:18:55;;;;;;;5.97;3.97;;;12.90;99.90;;;;;;5072065;28;20657;-67
2023/06/02 05:21:21;;;;;;;4.23;3.83;;;12.90;99.90;;;;;;5072693;28;20383;-69
2023/06/02 05:23:47;;;;;;;3.93;3.20;;;13.00;99.90;;;;;;5073471;28;20399;-67
2023/06/02 05:26:13;;;;;;;4.03;3.63;;;12.90;99.90;;;;;;5073378;28;20196;-69
2023/06/02 05:28:38;;;;;;;3.70;2.80;;;13.00;99.90;;;;;;5071422;28;20756;-67
2023/06/02 05:31:04;;;;;;;7.87;3.20;;;13.10;99.90;;;;;;5072564;28;20170;-69
2023/06/02 05:33:30;;;;;;;3.23;2.77;;;13.10;99.90;;;;;;5073177;28;20182;-68
2023/06/02 05:35:56;;;;;;;3.73;3.40;;;13.10;99.90;;;;;;5072403;28;20178;-69
2023/06/02 05:38:21;;;;;;;3.70;2.80;;;13.20;99.90;;;;;;5073308;28;20166;-69
2023/06/02 05:40:47;;;;;;;4.33;2.70;;;13.20;98.90;;;;;;5071040;28;20372;-69
2023/06/02 05:43:13;;;;;;;3.47;2.47;;;13.10;93.20;;;;;;5071824;28;20206;-67
2023/06/02 05:45:39;;;;;;;2.87;2.47;;;13.00;79.60;;;;;;5072413;28;20654;-67
2023/06/02 05:48:04;;;;;;;5.30;3.10;;;13.00;69.90;;;;;;5072849;28;20419;-68
2023/06/02 05:50:30;;;;;;;3.00;2.80;;;13.00;46.30;;;;;;5072130;28;20162;-68
2023/06/02 05:52:56;;;;;;;3.37;2.50;;;13.00;32.90;;;;;;5073006;28;20567;-66
2023/06/02 05:55:22;;;;;;;4.93;3.17;;;13.20;31.00;;;;;;5069726;28;20719;-68
2023/06/02 05:57:47;;;;;;;5.93;2.43;;;13.20;8.50;;;;;;5068291;28;20527;-66
2023/06/02 06:00:13;;;;;;;6.90;2.17;;;13.10;1.00;;;;;;5067738;28;20415;-68
2023/06/02 06:02:39;;;;;;;4.53;2.07;;;13.10;1.00;;;;;;5061341;28;20218;-67
2023/06/02 06:05:06;;;;;;;4.90;2.60;;;13.10;1.00;;;;;;5071078;28;20719;-66
2023/06/02 06:07:31;;;;;;;4.27;2.73;;;13.10;1.00;;;;;;5072642;28;20499;-66
2023/06/02 06:09:57;;;;;;;5.10;2.80;;;13.20;1.00;;;;;;5072674;28;20401;-69
2023/06/02 06:12:25;;;;;;;12.50;2.63;;;13.10;1.00;;;;;;5072261;28;20174;-66
2023/06/02 06:14:51;;;;;;;4.10;2.33;;;13.20;1.00;;;;;;5071758;28;20519;-66
2023/06/02 06:17:17;;;;;;;5.73;2.97;;;13.20;1.00;;;;;;5069320;28;20436;-66
2023/06/02 06:19:42;;;;;;;4.83;3.07;;;13.30;1.00;;;;;;5067781;28;20181;-66
2023/06/02 06:22:08;;;;;;;6.40;2.47;;;13.30;1.00;;;;;;5052104;28;20528;-68
2023/06/02 06:24:34;;;;;;;4.23;2.13;;;13.20;1.00;;;;;;5072703;28;20202;-66
2023/06/02 06:26:59;;;;;;;2.53;2.33;;;13.30;1.00;;;;;;5072446;28;20255;-66
2023/06/02 06:29:25;;;;;;;9.30;2.37;;;13.40;1.00;;;;;;5072827;28;20174;-67
2023/06/02 06:31:53;;;;;;;8.10;2.30;;;13.60;1.00;;;;;;5072001;28;20173;-67
2023/06/02 06:34:19;;;;;;;8.20;2.20;;;13.60;1.00;;;;;;5072677;28;20236;-66
2023/06/02 06:36:47;;;;;;;6.13;2.40;;;13.70;1.00;;;;;;5069074;28;20936;-69
2023/06/02 06:39:13;;;;;;;3.67;2.30;;;13.90;1.00;;;;;;5071955;28;20186;-65
2023/06/02 06:41:40;;;;;;;4.30;2.60;;;14.10;1.00;;;;;;5071796;28;20388;-66
2023/06/02 06:44:06;;;;;;;9.97;2.43;;;14.10;1.00;;;;;;5069605;28;20670;-72
2023/06/02 06:46:31;;;;;;;3.90;2.60;;;14.00;1.00;;;;;;5072298;28;20448;-68
2023/06/02 06:48:58;;;;;;;3.97;1.97;;;14.00;1.00;;;;;;5072660;28;20219;-69
2023/06/02 06:51:24;;;;;;;4.00;2.47;;;13.90;1.00;;;;;;5071750;28;20167;-70
2023/06/02 06:53:50;;;;;;;4.50;2.23;;;13.90;1.00;;;;;;5070877;28;20417;-68
2023/06/02 06:56:16;;;;;;;4.07;2.57;;;13.80;1.00;;;;;;5074700;28;20404;-68
2023/06/02 06:58:42;;;;;;;2.90;2.53;;;13.80;1.00;;;;;;5074448;28;20214;-70
2023/06/02 07:01:07;;;;;;;8.30;2.30;;;14.00;1.00;;;;;;5073507;28;20438;-70
2023/06/02 07:03:33;;;;;;;10.60;3.23;;;13.90;1.00;;;;;;5075550;28;20189;-70
2023/06/02 07:06:00;;;;;;;6.57;3.00;;;13.90;1.00;;;;;;5076121;28;20204;-68
2023/06/02 07:08:26;;;;;;;5.80;3.13;;;14.00;1.00;;;;;;5076032;28;20163;-70
2023/06/02 07:10:52;;;;;;;3.90;2.70;;;14.00;1.00;;;;;;5075176;28;20392;-69
2023/06/02 07:13:18;;;;;;;6.10;2.50;;;14.10;1.00;;;;;;5074401;28;20421;-71
2023/06/02 07:15:45;;;;;;;4.10;2.40;;;14.20;1.00;;;;;;5076157;28;20623;-68
2023/06/02 07:18:11;;;;;;;7.50;3.17;;;14.20;1.00;;;;;;5074621;28;20402;-70
2023/06/02 07:20:37;;;;;;;4.03;2.20;;;14.30;1.00;;;;;;5074444;28;20404;-69
2023/06/02 07:23:02;;;;;;;3.10;2.30;;;14.40;1.00;;;;;;5074553;28;20431;-66
2023/06/02 07:25:28;;;;;;;3.70;2.00;;;14.50;1.00;;;;;;5075844;28;20170;-70
2023/06/02 07:27:57;;;;;;;4.20;1.97;;;14.60;1.00;;;;;;5074844;28;20243;-70
2023/06/02 07:30:23;;;;;;;5.13;2.30;;;14.70;1.00;;;;;;5073902;28;20182;-68
2023/06/02 07:32:48;;;;;;;3.30;2.20;;;15.00;1.00;;;;;;5075463;28;20428;-67
2023/06/02 07:35:15;;;;;;;2.90;2.70;;;15.10;1.00;;;;;;5075681;28;20170;-71
2023/06/02 07:37:41;;;;;;;4.23;2.97;;;15.10;1.00;;;;;;5075479;28;20162;-68
2023/06/02 07:40:08;;;;;;;4.60;2.70;;;15.10;1.00;;;;;;5073231;28;20442;-69
2023/06/02 07:42:33;;;;;;;6.27;2.77;;;15.10;1.00;;;;;;5073870;28;20594;-69
2023/06/02 07:44:59;;;;;;;3.93;2.40;;;15.10;1.00;;;;;;5075417;28;20453;-70
2023/06/02 07:47:25;;;;;;;3.10;2.00;;;15.10;1.00;;;;;;5075332;28;20662;-68
2023/06/02 07:49:51;;;;;;;2.63;2.17;;;15.00;1.00;;;;;;5074353;28;20706;-69
2023/06/02 07:52:16;;;;;;;7.10;2.57;;;14.90;1.00;;;;;;5073275;28;20409;-70
2023/06/02 07:54:42;;;;;;;3.60;2.60;;;14.90;1.00;;;;;;5074936;28;20166;-69
2023/06/02 07:57:08;;;;;;;2.53;2.33;;;15.00;1.00;;;;;;5073379;28;20581;-69
2023/06/02 07:59:33;;;;;;;4.17;2.53;;;15.10;1.00;;;;;;5074776;28;20170;-68
2023/06/02 08:01:59;;;;;;;5.00;4.60;;;15.10;1.00;;;;;;5073453;28;20686;-69
2023/06/02 08:04:27;;;;;;;2.70;2.50;;;15.20;1.00;;;;;;5073824;28;20714;-68
2023/06/02 08:06:55;;;;;;;4.43;2.70;;;15.10;1.00;;;;;;5074043;28;20198;-70
2023/06/02 08:09:22;;;;;;;7.07;2.63;;;15.00;1.00;;;;;;5074942;28;20915;-69
2023/06/02 08:11:49;;;;;;;4.93;2.53;;;15.10;1.00;;;;;;5071651;28;20439;-67
2023/06/02 08:14:15;;;;;;;10.43;3.07;;;15.20;1.00;;;;;;5074866;28;20412;-66
2023/06/02 08:16:41;;;;;;;3.30;2.60;;;15.40;1.00;;;;;;5074317;28;20431;-70
2023/06/02 08:19:07;;;;;;;3.03;1.30;;;15.70;1.00;;;;;;5074734;28;20371;-68
2023/06/02 08:21:33;;;;;;;7.67;2.43;;;15.70;1.00;;;;;;5073091;28;20428;-67
2023/06/02 08:24:00;;;;;;;5.70;2.30;;;15.60;1.00;;;;;;5074692;28;20416;-68
2023/06/02 08:26:26;;;;;;;3.23;2.20;;;15.40;1.00;;;;;;5074656;28;20192;-70
2023/06/02 08:28:53;;;;;;;6.90;2.30;;;15.40;1.00;;;;;;5073209;28;20478;-68
2023/06/02 08:31:21;;;;;;;3.70;2.30;;;15.50;1.00;;;;;;5073701;28;20404;-70
2023/06/02 08:33:47;;;;;;;2.87;2.20;;;15.70;1.00;;;;;;5073263;28;20436;-69
2023/06/02 08:36:17;;;;;;;4.97;2.57;;;15.90;1.00;;;;;;5073967;28;20443;-71
2023/06/02 08:38:44;;;;;;;2.70;1.87;;;15.90;1.00;;;;;;5074287;28;20469;-67
2023/06/02 08:41:14;;;;;;;5.33;3.10;;;16.00;1.00;;;;;;5073459;28;20404;-70
2023/06/02 08:43:42;;;;;;;2.07;1.90;;;16.30;1.00;;;;;;5072682;28;20521;-70
2023/06/02 08:46:14;;;;;;;6.23;2.43;;;16.50;99.90;;;;;;5072628;28;20459;-69
2023/06/02 08:48:46;;;;;;;4.07;2.10;;;16.40;99.90;;;;;;5074256;28;20404;-66
2023/06/02 08:51:22;;;;;;;5.40;2.17;;;16.30;99.90;;;;;;5073242;28;20487;-69
2023/06/02 08:53:48;;;;;;;3.00;2.33;;;16.30;99.90;;;;;;5070932;28;20440;-67
2023/06/02 08:56:15;;;;;;;3.83;1.60;;;16.40;99.90;;;;;;5072389;28;20917;-67
2023/06/02 08:58:45;;;;;;;2.73;1.90;;;16.60;99.90;;;;;;5071970;28;21586;-70
2023/06/02 09:01:11;;;;;;;2.60;1.87;;;16.70;99.90;;;;;;5073058;28;20401;-68
2023/06/02 09:03:37;;;;;;;6.57;1.80;;;16.80;99.90;;;;;;5072653;28;20432;-71
2023/06/02 09:06:18;;;;;;;2.60;1.80;;;16.90;99.90;;;;;;5057006;28;20814;-67
2023/06/02 09:09:01;;;;;;;3.30;1.93;;;16.80;99.90;;;;;;5053665;28;20402;-71
2023/06/02 09:11:28;;;;;;;2.00;1.80;;;16.70;99.90;;;;;;5052865;28;20437;-67
2023/06/02 09:13:55;;;;;;;2.67;1.70;;;16.90;99.90;;;;;;5066130;28;20494;-69
2023/06/02 09:16:22;;;;;;;5.27;4.10;;;17.10;99.90;;;;;;5070955;28;20439;-69
2023/06/02 09:18:56;;;;;;;5.53;2.20;;;17.30;99.90;;;;;;5071462;28;20420;-70
2023/06/02 09:21:32;;;;;;;3.60;2.00;;;17.40;99.90;;;;;;5072687;28;20450;-68
2023/06/02 09:24:00;;;;;;;4.10;1.80;;;17.30;99.90;;;;;;5071716;28;20444;-67
2023/06/02 09:26:30;;;;;;;1.93;1.50;;;17.40;99.90;;;;;;5068798;28;20472;-66
2023/06/02 09:29:06;;;;;;;1.63;1.50;;;17.40;99.90;;;;;;5058514;28;20436;-69
2023/06/02 09:31:52;;;;;;;7.03;2.77;;;17.70;99.90;;;;;;5071712;28;20429;-69
2023/06/02 09:34:19;;;;;;;7.27;2.20;;;17.80;99.90;;;;;;5073064;28;21012;-70
2023/06/02 09:36:51;;;;;;;3.60;1.70;;;18.00;99.90;;;;;;5073032;28;20399;-68
2023/06/02 09:39:34;;;;;;;2.07;1.47;;;18.30;99.90;;;;;;5073303;28;20397;-70
2023/06/02 09:42:00;;;;;;;3.00;1.60;;;18.60;99.90;;;;;;5071524;28;20458;-70
2023/06/02 09:44:26;;;;;;;4.50;1.77;;;18.60;99.90;;;;;;5073176;28;20448;-70
2023/06/02 09:46:53;;;;;;;2.07;1.87;;;18.50;99.90;;;;;;5073238;28;20456;-67
2023/06/02 09:49:20;;;;;;;3.13;1.43;;;18.90;99.90;;;;;;5073161;28;20913;-69
2023/06/02 09:51:46;;;;;;;2.97;1.43;;;19.50;99.90;;;;;;5072194;28;20446;-70
2023/06/02 09:54:11;;;;;;;2.07;1.77;;;20.00;99.90;;;;;;5073070;28;20186;-69
2023/06/02 09:56:38;;;;;;;3.93;1.63;;;20.00;99.90;;;;;;5071505;28;20478;-68
2023/06/02 09:59:08;;;;;;;3.53;1.50;;;19.80;99.90;;;;;;5073114;28;20196;-68
2023/06/02 10:01:35;;;;;;;2.10;1.23;;;19.90;99.90;;;;;;5072249;28;20429;-70
2023/06/02 10:04:02;;;;;;;3.50;1.37;;;20.00;99.90;;;;;;5072891;28;20432;-68
2023/06/02 10:06:40;;;;;;;2.90;1.70;;;20.00;99.90;;;;;;5071122;28;20505;-71
2023/06/02 10:09:32;;;;;;;1.83;1.53;;;20.30;99.90;;;;;;5073082;28;20753;-69
2023/06/02 10:12:07;;;;;;;3.93;1.47;;;20.40;99.90;;;;;;5070966;28;20419;-69
2023/06/02 10:15:35;;;;;;;4.17;1.90;;;20.40;99.90;;;;;;5071367;28;20924;-69
2023/06/02 10:18:20;;;;;;;3.13;1.50;;;20.70;99.90;;;;;;5050476;28;20417;-70
2023/06/02 10:21:18;;;;;;;2.13;1.13;;;21.10;99.90;;;;;;5039111;28;20433;-71
2023/06/02 10:24:04;;;;;;;2.47;1.27;;;21.70;99.90;;;;;;5051137;28;20559;-72
2023/06/02 10:26:51;;;;;;;3.43;1.40;;;22.10;99.90;;;;;;5052774;28;20460;-70
2023/06/02 10:29:18;;;;;;;3.07;2.77;;;21.20;99.90;;;;;;5052787;28;20405;-70
2023/06/02 10:31:44;;;;;;;1.90;1.30;;;21.00;99.90;;;;;;5055042;28;20439;-71
2023/06/02 10:34:40;;;;;;;4.43;1.40;;;21.40;99.90;;;;;;5062952;28;20496;-72
2023/06/02 10:37:11;;;;;;;5.73;1.57;;;21.30;99.90;;;;;;5076752;28;20174;-72
2023/06/02 10:39:40;;;;;;;3.70;1.70;;;21.40;99.90;;;;;;5077007;28;20411;-71
2023/06/02 10:42:13;;;;;;;2.43;1.57;;;21.70;99.90;;;;;;5074484;28;20431;-72
2023/06/02 10:44:39;;;;;;;7.73;1.17;;;21.90;99.90;;;;;;5076412;28;20501;-70
2023/06/02 10:47:17;;;;;;;1.87;1.77;;;21.90;99.90;;;;;;5076480;28;20444;-71
2023/06/02 10:49:59;;;;;;;3.40;1.50;;;21.20;99.90;;;;;;5075358;28;20419;-72
2023/06/02 10:52:33;;;;;;;2.63;1.60;;;20.80;99.90;;;;;;5073804;28;20781;-71
2023/06/02 10:55:08;;;;;;;8.83;1.77;;;21.00;99.90;;;;;;5076526;28;20404;-69
2023/06/02 10:57:52;;;;;;;4.90;1.43;;;21.00;99.90;;;;;;5076467;28;20407;-72
2023/06/02 11:00:36;;;;;;;1.60;1.20;;;21.10;99.90;;;;;;5075420;28;20436;-71
2023/06/02 11:03:04;;;;;;;2.37;1.53;;;20.70;99.90;;;;;;5075430;28;20505;-72
2023/06/02 11:05:31;;;;;;;1.50;1.13;;;20.50;99.90;;;;;;5076308;28;20404;-71
2023/06/02 11:08:16;;;;;;;2.30;1.00;;;20.90;99.90;;;;;;5076052;28;20451;-69
2023/06/02 11:10:43;;;;;;;7.30;1.40;;;21.40;99.90;;;;;;5074272;28;20431;-71
2023/06/02 11:13:09;;;;;;;1.60;1.30;;;22.00;99.90;;;;;;5074286;28;20967;-69
2023/06/02 11:15:35;;;;;;;3.47;1.10;;;22.20;99.90;;;;;;5076178;28;20452;-71
2023/06/02 11:18:34;;;;;;;1.60;1.23;;;22.20;99.90;;;;;;5074513;28;20436;-71
2023/06/02 11:21:15;;;;;;;2.80;1.40;;;22.30;99.90;;;;;;5052111;28;20424;-71
2023/06/02 11:23:44;;;;;;;3.30;1.40;;;21.70;99.90;;;;;;5074821;28;20436;-71
2023/06/02 11:26:16;;;;;;;2.80;1.20;;;22.00;99.90;;;;;;5075861;28;20456;-71
2023/06/02 11:28:42;;;;;;;2.33;1.33;;;22.40;99.90;;;;;;5075551;28;20447;-73
2023/06/02 11:31:18;;;;;;;2.30;1.47;;;22.40;99.90;;;;;;5070726;28;20424;-71
2023/06/02 11:33:49;;;;;;;1.90;1.10;;;21.60;99.90;;;;;;5075671;28;20232;-72
2023/06/02 11:36:17;;;;;;;2.10;1.70;;;21.80;99.90;;;;;;5075714;28;20900;-73
2023/06/02 11:38:43;;;;;;;1.80;1.47;;;21.60;99.90;;;;;;5074496;28;20482;-72
2023/06/02 11:41:13;;;;;;;4.80;1.67;;;21.20;99.90;;;;;;5073188;28;20416;-69
2023/06/02 11:43:48;;;;;;;2.03;1.70;;;21.40;99.90;;;;;;5073592;28;20221;-70
2023/06/02 11:46:18;;;;;;;1.60;1.50;;;21.80;99.90;;;;;;5073159;28;20467;-71
2023/06/02 11:48:45;;;;;;;1.80;1.70;;;21.80;99.90;;;;;;5074109;28;20465;-69
2023/06/02 11:51:15;;;;;;;2.30;1.43;;;21.90;99.90;;;;;;5074435;28;20396;-70
2023/06/02 11:53:45;;;;;;;1.90;1.17;;;22.30;99.90;;;;;;5074013;28;20429;-72
2023/06/02 11:56:15;;;;;;;6.93;1.53;;;23.00;99.90;;;;;;5075409;28;20403;-72
2023/06/02 11:58:46;;;;;;;3.07;1.83;;;23.50;99.90;;;;;;5075211;28;20400;-72
2023/06/02 12:01:15;;;;;;;2.73;1.40;;;23.50;99.90;;;;;;5071891;28;20444;-71
2023/06/02 12:04:05;;;;;;;2.17;1.13;;;23.00;99.90;;;;;;5073405;28;20430;-74
2023/06/02 12:06:45;;;;;;;3.00;1.40;;;23.20;99.90;;;;;;5066989;28;20482;-71
2023/06/02 12:09:13;;;;;;;3.60;1.40;;;23.50;99.90;;;;;;5063597;28;20421;-69
2023/06/02 12:11:39;;;;;;;2.27;1.70;;;23.70;99.90;;;;;;5054125;28;20412;-69
2023/06/02 12:14:07;;;;;;;3.90;1.30;;;24.30;99.90;;;;;;5065996;28;20452;-69
2023/06/02 12:16:40;;;;;;;5.33;1.20;;;24.20;99.90;;;;;;5073860;28;20497;-71
2023/06/02 12:19:11;;;;;;;4.30;1.80;;;23.30;99.90;;;;;;5074849;28;20438;-69
2023/06/02 12:21:39;;;;;;;3.70;1.60;;;23.00;99.90;;;;;;5073116;28;20428;-70
2023/06/02 12:24:05;;;;;;;2.53;1.20;;;22.60;99.90;;;;;;5073290;28;20451;-68
2023/06/02 12:26:42;;;;;;;1.93;1.33;;;22.30;99.90;;;;;;5074667;28;20571;-69
2023/06/02 12:29:08;;;;;;;2.10;1.30;;;22.60;99.90;;;;;;5073448;28;20166;-68
2023/06/02 12:31:34;;;;;;;2.40;1.23;;;23.20;99.90;;;;;;5073922;28;20400;-68
2023/06/02 12:34:00;;;;;;;1.37;1.13;;;23.60;99.90;;;;;;5074534;28;20417;-70
2023/06/02 12:36:27;;;;;;;1.37;1.27;;;23.80;99.90;;;;;;5074568;28;20183;-70
2023/06/02 12:38:52;;;;;;;3.60;1.60;;;23.00;99.90;;;;;;5074564;28;20174;-69
2023/06/02 12:41:18;;;;;;;3.70;1.40;;;22.60;99.90;;;;;;5072877;28;20824;-71
2023/06/02 12:43:44;;;;;;;1.97;1.37;;;23.10;99.90;;;;;;5071867;28;20679;-72
2023/06/02 12:46:13;;;;;;;4.67;1.37;;;23.20;99.90;;;;;;5074268;28;20178;-70
2023/06/02 12:48:39;;;;;;;4.43;1.60;;;23.00;99.90;;;;;;5074363;28;20211;-71
2023/06/02 12:51:06;;;;;;;2.23;1.30;;;21.70;99.90;;;;;;5071955;28;20425;-72
2023/06/02 12:53:33;;;;;;;2.27;1.50;;;21.10;99.90;;;;;;5069282;28;20642;-68
2023/06/02 12:56:00;;;;;;;1.83;1.27;;;20.90;99.90;;;;;;5073999;28;20393;-71
2023/06/02 12:58:26;;;;;;;2.40;1.40;;;21.40;99.90;;;;;;5073582;28;20396;-68